Terminal Aerodrome Forecast
Issued by NWS Twin Cities, MN

Home | Current Version | Previous Version | Graphics & Text | Print | Product List | Glossary On
Versions: 1 2 3 4 5 6 7 8 9 10 11 12 13 14 15 16 17 18 19 20 21 22 23 24 25 26 27 28 29 30
000
FTUS43 KMPX 231443 AAA
TAFMSP
TAF AMD
KMSP 231443Z 2315/2418 18011KT P6SM BKN250
     FM231600 19015G25KT P6SM BKN200
     FM240000 16011KT P6SM SCT050 BKN120 PROB30 2401/2406 4SM -TSRA
      OVC035CB
     FM240600 17006KT P6SM OVC040 PROB30 2408/2412 5SM -TSRA
      OVC015CB
     FM241300 27005KT P6SM SCT015 BKN040=

USA.gov is the U.S. government's official web portal to all federal, state and local government web resources and services.